Time;durP1;ratioP1;P1;durP2;ratioP2;P2;SDS_P1;SDS_P2;PMS_P1;PMS_P2;Temp;Humidity;BMP_temperature;BMP_pressure;BME280_temperature;BME280_humidity;BME280_pressure;Samples;Min_cycle;Max_cycle;Signal;HPM_P1;HPM_P2
2022/06/28 00:02:08;;;;;;;13.90;9.05;;;13.60;99.90;;;;;;4984232;28;20034;-94
2022/06/28 00:04:34;;;;;;;13.48;9.77;;;13.50;99.90;;;;;;4985576;28;20038;-94
2022/06/28 00:07:09;;;;;;;12.77;7.53;;;13.30;99.90;;;;;;4987541;28;20030;-94
2022/06/28 00:09:34;;;;;;;14.32;7.88;;;13.20;99.90;;;;;;4986012;28;20541;-94
2022/06/28 00:12:00;;;;;;;10.77;8.15;;;13.20;99.90;;;;;;4984698;28;20034;-95
2022/06/28 00:17:35;;;;;;;13.73;10.57;;;13.10;99.90;;;;;;5021325;28;20045;-95
2022/06/28 00:20:02;;;;;;;19.67;12.23;;;13.10;99.90;;;;;;4987421;28;20038;-95
2022/06/28 00:22:28;;;;;;;16.05;11.40;;;13.40;99.90;;;;;;4990030;28;20476;-95
2022/06/28 00:24:54;;;;;;;14.35;11.93;;;13.40;99.90;;;;;;4989332;28;20026;-94
2022/06/28 00:27:20;;;;;;;32.60;16.38;;;13.40;99.90;;;;;;4987037;28;20065;-93
2022/06/28 00:29:46;;;;;;;28.48;17.67;;;13.40;99.90;;;;;;4988293;28;20037;-95
2022/06/28 00:32:14;;;;;;;34.67;17.73;;;13.40;99.90;;;;;;4986350;28;20058;-94
2022/06/28 00:34:40;;;;;;;35.30;16.73;;;13.40;99.90;;;;;;4989078;28;20036;-93
2022/06/28 00:37:06;;;;;;;27.88;16.25;;;13.40;99.90;;;;;;4989269;28;20053;-93
2022/06/28 00:39:32;;;;;;;23.20;16.08;;;13.40;99.90;;;;;;4986861;28;20061;-94
2022/06/28 00:41:58;;;;;;;19.85;13.40;;;13.40;99.90;;;;;;4986229;28;20036;-95
2022/06/28 00:44:24;;;;;;;18.83;14.18;;;13.30;99.90;;;;;;4989903;28;20030;-94
2022/06/28 00:46:51;;;;;;;19.67;14.30;;;13.20;99.90;;;;;;4988783;28;20453;-95
2022/06/28 00:49:18;;;;;;;20.05;14.18;;;13.10;99.90;;;;;;4989633;28;20051;-95
2022/06/28 00:51:44;;;;;;;19.35;13.57;;;13.00;99.90;;;;;;4991637;28;20034;-94
2022/06/28 00:54:10;;;;;;;23.00;14.63;;;12.90;99.90;;;;;;4988761;28;20030;-94
2022/06/28 00:57:29;;;;;;;20.88;14.30;;;12.90;99.90;;;;;;4986909;28;20071;-94
2022/06/28 00:59:55;;;;;;;19.13;14.00;;;12.90;99.90;;;;;;4989676;28;20500;-94
2022/06/28 01:02:21;;;;;;;19.70;13.80;;;12.80;99.90;;;;;;4989440;28;20034;-94
2022/06/28 01:04:47;;;;;;;24.17;16.10;;;12.70;99.90;;;;;;4988150;28;20034;-93
2022/06/28 01:07:13;;;;;;;21.02;15.40;;;12.60;99.90;;;;;;4989672;28;20034;-94
2022/06/28 01:09:39;;;;;;;23.77;15.38;;;12.60;99.90;;;;;;4987930;28;20041;-95
2022/06/28 01:12:06;;;;;;;26.27;15.07;;;12.50;99.90;;;;;;4987564;28;20118;-94
2022/06/28 01:14:34;;;;;;;20.00;13.95;;;12.60;99.90;;;;;;4986229;28;20378;-94
2022/06/28 01:17:09;;;;;;;21.67;13.30;;;12.60;99.90;;;;;;4988202;28;20034;-95
2022/06/28 01:19:44;;;;;;;18.65;12.52;;;12.50;99.90;;;;;;4987232;28;20034;-95
2022/06/28 01:22:28;;;;;;;20.08;12.75;;;12.50;99.90;;;;;;4988869;28;20022;-96
2022/06/28 01:24:54;;;;;;;17.92;11.38;;;12.40;99.90;;;;;;4987240;28;20377;-94
2022/06/28 01:27:23;;;;;;;16.58;10.77;;;12.40;99.90;;;;;;4986416;28;20113;-96
2022/06/28 01:29:50;;;;;;;14.70;11.73;;;12.30;99.90;;;;;;4987116;28;20492;-94
2022/06/28 01:32:44;;;;;;;18.42;11.60;;;12.30;99.90;;;;;;4991210;28;20030;-95
2022/06/28 01:35:12;;;;;;;17.73;11.43;;;12.30;99.90;;;;;;4990563;28;20030;-96
2022/06/28 01:37:39;;;;;;;18.42;11.75;;;12.30;99.90;;;;;;4989152;28;20034;-94
2022/06/28 01:43:52;;;;;;;14.98;10.85;;;12.30;99.90;;;;;;5022915;28;20037;-96
2022/06/28 01:46:19;;;;;;;14.70;11.25;;;12.20;99.90;;;;;;4989651;28;20144;-96
2022/06/28 01:48:56;;;;;;;13.98;10.65;;;12.20;99.90;;;;;;4992238;28;20026;-95
2022/06/28 01:51:23;;;;;;;14.27;10.45;;;12.10;99.90;;;;;;4989011;28;20034;-96
2022/06/28 01:53:49;;;;;;;17.60;11.50;;;12.00;99.90;;;;;;4989399;28;20034;-96
2022/06/28 01:56:21;;;;;;;12.93;9.52;;;12.00;99.90;;;;;;4990411;28;20030;-93
2022/06/28 01:58:59;;;;;;;18.98;10.90;;;12.00;99.90;;;;;;4991277;28;20108;-94
2022/06/28 02:01:36;;;;;;;13.95;10.15;;;11.90;99.90;;;;;;4991672;28;20123;-94
2022/06/28 02:04:25;;;;;;;16.33;10.30;;;11.80;99.90;;;;;;4989697;28;20385;-95
2022/06/28 02:06:59;;;;;;;12.15;9.02;;;11.70;99.90;;;;;;4990893;28;20022;-95
2022/06/28 02:09:31;;;;;;;16.80;9.13;;;11.70;99.90;;;;;;4990425;28;20037;-95
2022/06/28 02:11:57;;;;;;;15.63;9.60;;;11.70;99.90;;;;;;4989632;28;20100;-95
2022/06/28 02:14:28;;;;;;;19.17;10.43;;;11.70;99.90;;;;;;4990267;28;20037;-94
2022/06/28 02:16:58;;;;;;;18.77;9.50;;;11.50;99.90;;;;;;4989046;28;20046;-94
2022/06/28 02:19:49;;;;;;;19.70;11.30;;;11.60;99.90;;;;;;4989577;28;20034;-94
2022/06/28 02:22:15;;;;;;;17.95;10.50;;;11.50;99.90;;;;;;4990548;28;20054;-95
2022/06/28 02:24:41;;;;;;;16.48;10.65;;;11.50;99.90;;;;;;5022815;28;20034;-95
2022/06/28 02:27:07;;;;;;;11.38;9.25;;;11.50;99.90;;;;;;4988576;28;20033;-95
2022/06/28 02:29:33;;;;;;;15.38;10.68;;;11.50;99.90;;;;;;4989806;28;20044;-95
2022/06/28 02:31:59;;;;;;;12.98;9.68;;;11.50;99.90;;;;;;4989385;28;20049;-95
2022/06/28 02:42:41;;;;;;;13.50;9.75;;;11.40;99.90;;;;;;5009084;28;20030;-95
2022/06/28 02:45:08;;;;;;;15.95;11.48;;;11.40;99.90;;;;;;4988982;28;20022;-96
2022/06/28 02:47:35;;;;;;;16.98;10.82;;;11.40;99.90;;;;;;5006473;28;20026;-96
2022/06/28 02:50:01;;;;;;;16.42;9.98;;;11.50;99.90;;;;;;4991974;28;20018;-96
2022/06/28 02:52:28;;;;;;;23.73;11.18;;;11.40;99.90;;;;;;4991791;28;20046;-95
2022/06/28 02:54:54;;;;;;;16.38;11.63;;;11.40;99.90;;;;;;4990245;28;20037;-95
2022/06/28 02:57:20;;;;;;;17.80;11.25;;;11.40;99.90;;;;;;4987097;28;20411;-95
2022/06/28 02:59:46;;;;;;;16.00;10.70;;;11.40;99.90;;;;;;4987894;28;20117;-95
2022/06/28 03:02:12;;;;;;;15.18;10.48;;;11.40;99.90;;;;;;4987641;28;20057;-95
2022/06/28 03:04:38;;;;;;;16.85;10.95;;;11.30;99.90;;;;;;4992368;28;20026;-95
2022/06/28 03:07:06;;;;;;;18.70;10.32;;;11.30;99.90;;;;;;4993064;28;20037;-96
2022/06/28 03:09:32;;;;;;;16.15;10.43;;;11.20;99.90;;;;;;4992228;28;20496;-96
2022/06/28 03:11:58;;;;;;;15.95;11.05;;;11.30;99.90;;;;;;4990650;28;20026;-96
2022/06/28 03:14:25;;;;;;;14.57;10.20;;;11.20;99.90;;;;;;4991839;28;20038;-95
2022/06/28 03:16:51;;;;;;;21.08;10.88;;;11.20;99.90;;;;;;4992431;28;20062;-96
2022/06/28 03:19:17;;;;;;;15.45;11.15;;;11.20;99.90;;;;;;4990896;28;20041;-95
2022/06/28 03:21:55;;;;;;;16.50;10.60;;;11.20;99.90;;;;;;4991127;28;20034;-95
2022/06/28 03:24:22;;;;;;;17.80;10.25;;;11.20;99.90;;;;;;4982853;28;20113;-90
2022/06/28 03:27:28;;;;;;;15.65;11.07;;;11.20;99.90;;;;;;4977911;28;20435;-89
2022/06/28 03:29:54;;;;;;;14.15;10.80;;;11.20;99.90;;;;;;4994387;28;20033;-90
2022/06/28 03:32:26;;;;;;;;;;;11.10;99.90;;;;;;4979123;28;20042;-90
2022/06/28 03:34:52;;;;;;;19.05;11.38;;;11.10;99.90;;;;;;4994161;28;19951;-89
2022/06/28 03:37:20;;;;;;;18.80;13.10;;;11.10;99.90;;;;;;4977708;28;20443;-89
2022/06/28 03:40:05;;;;;;;20.75;13.05;;;11.10;99.90;;;;;;4977952;28;20116;-89
2022/06/28 03:42:32;;;;;;;16.60;12.40;;;11.00;99.90;;;;;;4977686;28;20030;-90
2022/06/28 03:44:57;;;;;;;16.30;12.00;;;11.00;99.90;;;;;;4977023;28;20022;-89
2022/06/28 03:47:23;;;;;;;20.45;11.43;;;10.90;99.90;;;;;;4978151;28;20034;-89
2022/06/28 03:50:12;;;;;;;15.88;12.07;;;10.90;99.90;;;;;;4997221;28;20057;-87
2022/06/28 03:52:53;;;;;;;20.23;11.10;;;11.00;99.90;;;;;;4979715;28;20029;-87
2022/06/28 03:55:37;;;;;;;14.90;11.07;;;11.10;99.90;;;;;;4996304;28;20401;-87
2022/06/28 03:58:10;;;;;;;19.75;11.77;;;11.10;99.90;;;;;;4978082;28;20033;-87
2022/06/28 04:00:35;;;;;;;19.00;11.15;;;11.10;99.90;;;;;;4977637;28;20038;-88
2022/06/28 04:03:02;;;;;;;15.23;9.77;;;11.20;99.90;;;;;;4977341;28;20538;-88
2022/06/28 04:05:38;;;;;;;14.07;9.07;;;11.20;99.90;;;;;;4978857;28;20481;-88
2022/06/28 04:08:04;;;;;;;15.77;8.15;;;11.20;99.90;;;;;;4993739;28;20036;-88
2022/06/28 04:10:39;;;;;;;10.00;8.02;;;11.30;99.90;;;;;;4978496;28;20533;-88
2022/06/28 04:13:15;;;;;;;9.82;7.82;;;11.30;99.90;;;;;;4993328;28;20034;-88
2022/06/28 04:15:41;;;;;;;9.38;7.03;;;11.30;99.90;;;;;;4977119;28;20505;-88
2022/06/28 04:18:36;;;;;;;13.10;6.25;;;11.30;99.90;;;;;;4978032;28;20123;-88
2022/06/28 04:21:02;;;;;;;21.75;5.88;;;11.30;99.90;;;;;;4994494;28;20038;-88
2022/06/28 04:23:38;;;;;;;14.00;6.70;;;11.30;99.90;;;;;;4977568;28;20033;-89
2022/06/28 04:26:04;;;;;;;7.63;5.95;;;11.30;99.90;;;;;;4977662;28;20435;-88
2022/06/28 04:32:23;;;;;;;9.77;5.47;;;11.40;99.90;;;;;;5010351;28;20103;-88
2022/06/28 04:34:49;;;;;;;5.40;4.82;;;11.50;99.90;;;;;;4976546;28;20026;-87
2022/06/28 04:37:15;;;;;;;12.25;5.78;;;11.50;99.90;;;;;;4976352;28;20223;-88
2022/06/28 04:39:43;;;;;;;6.72;4.35;;;11.40;99.90;;;;;;4976837;28;20442;-87
2022/06/28 04:42:20;;;;;;;11.93;3.80;;;11.50;99.90;;;;;;4977674;28;20066;-88
2022/06/28 04:44:46;;;;;;;7.68;4.00;;;11.40;99.90;;;;;;4992869;28;20037;-88
2022/06/28 04:47:17;;;;;;;7.68;4.28;;;11.40;99.90;;;;;;4977920;28;20026;-88
2022/06/28 04:49:44;;;;;;;6.45;4.38;;;11.50;99.90;;;;;;4977227;28;20109;-88
2022/06/28 04:52:10;;;;;;;7.57;5.03;;;11.60;99.90;;;;;;4976891;28;20033;-87
2022/06/28 04:54:40;;;;;;;7.05;4.13;;;11.80;99.90;;;;;;4977236;28;20065;-87
2022/06/28 04:57:15;;;;;;;10.43;5.70;;;11.80;99.90;;;;;;4978352;28;20113;-88
2022/06/28 04:59:46;;;;;;;7.03;5.22;;;11.80;99.90;;;;;;4977837;28;20095;-88
2022/06/28 05:02:28;;;;;;;9.02;5.60;;;11.80;99.90;;;;;;4979217;28;20078;-88
2022/06/28 05:04:57;;;;;;;7.18;5.20;;;12.00;99.90;;;;;;4992509;28;20041;-88
2022/06/28 05:07:33;;;;;;;6.45;5.70;;;12.00;99.90;;;;;;4980284;28;20544;-87
2022/06/28 05:10:00;;;;;;;5.22;4.22;;;12.10;99.90;;;;;;4980186;28;20029;-88
2022/06/28 05:12:26;;;;;;;5.93;3.55;;;12.10;99.90;;;;;;4996167;28;20133;-87
2022/06/28 05:14:51;;;;;;;6.78;3.65;;;12.20;99.90;;;;;;4980058;28;20607;-87
2022/06/28 05:17:18;;;;;;;6.72;3.42;;;12.30;99.90;;;;;;4979529;28;20041;-88
2022/06/28 05:19:44;;;;;;;6.85;3.40;;;12.40;99.90;;;;;;4979791;28;20037;-88
2022/06/28 05:22:10;;;;;;;4.53;3.05;;;12.60;99.90;;;;;;4979733;28;20034;-88
2022/06/28 05:24:55;;;;;;;2.92;2.55;;;12.70;99.90;;;;;;4995717;28;20481;-88
2022/06/28 05:27:21;;;;;;;4.55;2.83;;;12.70;99.90;;;;;;4979731;28;20038;-88
2022/06/28 05:29:47;;;;;;;4.38;2.90;;;12.80;99.90;;;;;;4979643;28;20041;-88
2022/06/28 05:32:13;;;;;;;8.10;3.28;;;12.80;99.90;;;;;;4979170;28;20044;-87
2022/06/28 05:34:40;;;;;;;5.28;3.10;;;12.90;99.90;;;;;;4995965;28;20038;-88
2022/06/28 05:37:07;;;;;;;5.65;2.95;;;12.90;99.90;;;;;;4979845;28;20033;-87
2022/06/28 05:39:33;;;;;;;8.07;4.03;;;12.90;99.90;;;;;;4995719;28;20041;-88
2022/06/28 05:41:58;;;;;;;4.65;2.70;;;13.00;99.90;;;;;;4979616;28;20430;-88
2022/06/28 05:44:24;;;;;;;8.48;3.33;;;13.10;99.90;;;;;;4995656;28;20033;-88
2022/06/28 05:46:51;;;;;;;3.30;2.35;;;13.20;99.90;;;;;;4996147;28;20034;-90
2022/06/28 05:49:17;;;;;;;4.63;2.85;;;13.40;99.90;;;;;;4995197;28;20033;-88
2022/06/28 05:51:43;;;;;;;5.10;2.45;;;13.50;99.90;;;;;;4995560;28;20030;-88
2022/06/28 05:54:12;;;;;;;3.25;2.40;;;13.60;99.90;;;;;;4979550;28;20112;-88
2022/06/28 05:56:37;;;;;;;4.70;2.30;;;13.70;99.90;;;;;;4978786;28;20102;-89
2022/06/28 05:59:04;;;;;;;2.65;2.42;;;13.70;99.90;;;;;;4979033;28;20033;-88
2022/06/28 06:01:30;;;;;;;11.15;2.08;;;13.80;99.90;;;;;;4978933;28;20034;-88
2022/06/28 06:03:58;;;;;;;4.60;2.08;;;13.90;99.90;;;;;;4978997;28;20032;-88
2022/06/28 06:06:24;;;;;;;2.05;1.73;;;13.90;99.90;;;;;;4979257;28;20066;-88
2022/06/28 06:08:53;;;;;;;4.53;1.95;;;14.00;99.90;;;;;;4979026;28;20026;-88
2022/06/28 06:11:19;;;;;;;4.30;2.10;;;14.10;99.90;;;;;;4979228;28;20034;-87
2022/06/28 06:13:45;;;;;;;2.97;1.83;;;14.20;99.90;;;;;;4979043;28;20026;-88
2022/06/28 06:16:10;;;;;;;4.50;1.83;;;14.20;99.90;;;;;;4995077;28;20530;-87
2022/06/28 06:18:36;;;;;;;3.55;1.90;;;14.30;99.90;;;;;;4977991;28;20525;-89
2022/06/28 06:21:02;;;;;;;9.35;1.98;;;14.50;99.90;;;;;;4994432;28;20044;-88
2022/06/28 06:23:28;;;;;;;6.13;1.77;;;14.60;99.90;;;;;;4978535;28;20030;-88
2022/06/28 06:25:59;;;;;;;;;;;14.70;99.90;;;;;;4997094;28;20070;-87
2022/06/28 06:28:26;;;;;;;2.67;1.60;;;14.80;99.90;;;;;;5027899;28;19913;-88
2022/06/28 06:30:51;;;;;;;5.75;1.40;;;15.00;99.90;;;;;;4995149;28;20044;-87
2022/06/28 06:33:21;;;;;;;5.68;1.98;;;15.00;99.90;;;;;;4978560;28;20030;-88
2022/06/28 06:36:05;;;;;;;8.25;2.05;;;15.10;99.90;;;;;;4980930;28;20627;-88
2022/06/28 06:38:33;;;;;;;2.47;1.40;;;15.20;99.90;;;;;;4978696;28;20037;-88
2022/06/28 06:40:59;;;;;;;2.20;1.10;;;15.20;99.90;;;;;;4978183;28;20048;-88
2022/06/28 06:43:43;;;;;;;5.18;1.60;;;15.30;99.90;;;;;;4978058;28;20545;-87
2022/06/28 06:46:14;;;;;;;9.55;1.55;;;15.40;99.90;;;;;;4994630;28;20022;-89
2022/06/28 06:48:41;;;;;;;2.38;1.60;;;15.60;99.90;;;;;;4994639;28;20056;-88
2022/06/28 06:51:47;;;;;;;4.82;1.40;;;15.70;99.90;;;;;;4978751;28;20036;-88
2022/06/28 06:54:15;;;;;;;1.85;1.40;;;15.80;99.90;;;;;;4978137;28;20050;-88
2022/06/28 06:56:41;;;;;;;3.45;1.40;;;16.00;99.90;;;;;;4994035;28;20629;-88
2022/06/28 06:59:11;;;;;;;2.22;1.30;;;16.00;99.90;;;;;;4978303;28;20049;-88
2022/06/28 07:01:38;;;;;;;3.35;1.27;;;16.10;99.90;;;;;;4994542;28;20030;-88
2022/06/28 07:04:04;;;;;;;3.53;1.38;;;16.20;99.90;;;;;;4977962;28;20060;-88
2022/06/28 07:06:31;;;;;;;1.83;1.27;;;16.30;99.90;;;;;;4978578;28;20057;-88
2022/06/28 07:08:57;;;;;;;4.70;1.35;;;16.40;99.90;;;;;;4977605;28;20022;-89
2022/06/28 07:11:23;;;;;;;3.42;1.58;;;16.50;99.90;;;;;;4977608;28;20098;-89
2022/06/28 07:13:50;;;;;;;2.67;0.90;;;17.20;99.90;;;;;;4977764;28;20037;-88
2022/06/28 07:16:16;;;;;;;2.35;1.00;;;18.30;99.90;;;;;;4977882;28;20042;-89
2022/06/28 07:18:42;;;;;;;3.20;0.90;;;20.10;99.90;;;;;;4994039;28;20098;-88
2022/06/28 07:21:09;;;;;;;1.13;0.88;;;21.80;99.90;;;;;;4977817;28;20026;-88
2022/06/28 07:23:35;;;;;;;1.33;0.90;;;23.20;99.90;;;;;;4994055;28;20124;-87
2022/06/28 07:26:01;;;;;;;4.18;1.00;;;24.60;99.90;;;;;;4994142;28;20760;-88
2022/06/28 07:28:26;;;;;;;5.13;1.13;;;26.00;96.90;;;;;;4977609;28;20061;-90
2022/06/28 07:30:52;;;;;;;2.75;0.80;;;26.70;94.10;;;;;;4976996;28;20087;-90
2022/06/28 07:33:18;;;;;;;2.00;0.65;;;26.70;90.00;;;;;;4977483;28;20823;-89
2022/06/28 07:35:45;;;;;;;1.63;0.82;;;26.90;82.60;;;;;;4993952;28;20424;-89
2022/06/28 07:38:13;;;;;;;0.93;0.80;;;27.70;78.50;;;;;;4978445;28;20034;-89
2022/06/28 07:41:11;;;;;;;4.25;0.98;;;28.40;75.20;;;;;;4966426;28;20034;-89
2022/06/28 07:43:59;;;;;;;1.52;0.73;;;28.60;73.30;;;;;;5020447;28;20034;-88
2022/06/28 07:46:29;;;;;;;3.88;1.20;;;27.30;72.60;;;;;;4978373;28;20038;-88
2022/06/28 07:48:55;;;;;;;2.05;1.10;;;25.30;75.60;;;;;;4977764;28;20038;-88
2022/06/28 07:54:10;;;;;;;2.15;1.20;;;22.40;80.70;;;;;;4993640;28;20416;-90
2022/06/28 07:56:42;;;;;;;1.52;0.90;;;21.60;87.50;;;;;;4978081;28;20436;-88
2022/06/28 07:59:09;;;;;;;2.30;0.98;;;21.10;86.00;;;;;;4977330;28;20030;-90
2022/06/28 08:01:35;;;;;;;3.63;1.10;;;21.00;90.50;;;;;;4992867;28;20030;-89
2022/06/28 08:04:08;;;;;;;1.88;1.42;;;21.50;91.30;;;;;;4978278;28;20022;-90
2022/06/28 08:06:34;;;;;;;1.50;1.20;;;22.60;90.90;;;;;;4977459;28;20046;-91
2022/06/28 08:09:01;;;;;;;6.50;0.90;;;23.60;88.70;;;;;;4977720;28;20026;-89
2022/06/28 08:11:27;;;;;;;4.65;1.00;;;24.10;90.40;;;;;;4977427;28;20078;-90
2022/06/28 08:13:57;;;;;;;3.03;1.30;;;24.20;87.70;;;;;;4977832;28;20026;-90
2022/06/28 08:16:23;;;;;;;4.22;1.30;;;24.70;87.70;;;;;;4977286;28;20046;-89
2022/06/28 08:18:50;;;;;;;3.72;1.60;;;25.40;82.70;;;;;;4993403;28;20187;-89
2022/06/28 08:21:16;;;;;;;2.60;1.55;;;26.00;84.70;;;;;;4977183;28;20113;-88
2022/06/28 08:23:42;;;;;;;3.85;1.45;;;25.80;84.50;;;;;;4977195;28;20163;-90
2022/06/28 08:26:08;;;;;;;1.63;0.90;;;26.30;83.40;;;;;;4977203;28;20041;-90
2022/06/28 08:28:33;;;;;;;4.15;1.02;;;26.30;81.10;;;;;;4993542;28;20442;-89
2022/06/28 08:31:18;;;;;;;3.80;1.33;;;26.90;80.60;;;;;;4977081;28;20038;-89
2022/06/28 08:33:43;;;;;;;1.95;1.00;;;27.30;78.20;;;;;;4976967;28;20084;-88
2022/06/28 08:36:09;;;;;;;2.28;1.00;;;27.60;78.60;;;;;;4977016;28;20078;-88
2022/06/28 08:38:35;;;;;;;2.22;1.10;;;27.90;77.30;;;;;;4977442;28;20058;-89
2022/06/28 08:41:02;;;;;;;1.42;0.75;;;28.40;75.80;;;;;;4976854;28;20378;-89
2022/06/28 08:43:31;;;;;;;1.63;0.80;;;28.40;72.60;;;;;;4992893;28;20104;-89
2022/06/28 08:45:57;;;;;;;1.33;0.90;;;29.20;72.30;;;;;;4976719;28;20473;-90
2022/06/28 08:48:30;;;;;;;3.72;1.13;;;29.60;69.40;;;;;;4977337;28;20037;-89
2022/06/28 08:50:58;;;;;;;2.50;0.90;;;29.90;66.60;;;;;;4977787;28;20048;-90
2022/06/28 08:53:24;;;;;;;9.30;2.03;;;30.00;68.20;;;;;;4977279;28;20038;-89
2022/06/28 08:55:51;;;;;;;2.50;1.20;;;29.40;69.00;;;;;;4977519;28;20481;-90
2022/06/28 08:58:17;;;;;;;3.00;0.90;;;28.30;69.00;;;;;;4993619;28;20038;-89
2022/06/28 09:00:43;;;;;;;2.40;1.17;;;27.70;69.20;;;;;;4977064;28;20064;-90
2022/06/28 09:03:09;;;;;;;2.85;1.02;;;27.60;69.80;;;;;;4993603;28;20475;-91
2022/06/28 09:05:35;;;;;;;4.57;1.25;;;27.60;68.00;;;;;;4977412;28;20065;-90
2022/06/28 09:08:00;;;;;;;1.83;1.17;;;27.30;69.20;;;;;;5010800;28;20370;-89
2022/06/28 09:10:27;;;;;;;2.78;1.17;;;27.10;71.70;;;;;;4976658;28;20045;-92
2022/06/28 09:13:11;;;;;;;4.13;1.05;;;27.40;69.80;;;;;;4976760;28;20091;-91
2022/06/28 09:15:51;;;;;;;5.68;1.33;;;26.60;72.70;;;;;;4977054;28;20118;-91
2022/06/28 09:18:19;;;;;;;2.25;1.02;;;26.10;74.00;;;;;;4993679;28;20469;-90
2022/06/28 09:20:45;;;;;;;1.35;1.00;;;26.10;73.40;;;;;;4993659;28;20088;-90
2022/06/28 09:23:45;;;;;;;2.63;1.05;;;26.10;74.60;;;;;;4976603;28;20030;-91
2022/06/28 09:26:21;;;;;;;6.07;1.20;;;26.40;72.70;;;;;;4987943;28;20034;-89
2022/06/28 09:28:52;;;;;;;4.00;0.90;;;27.00;70.60;;;;;;4976670;28;20045;-91
2022/06/28 09:31:22;;;;;;;;;;;27.50;69.80;;;;;;4993368;28;20501;-89
2022/06/28 09:34:04;;;;;;;3.78;1.00;;;27.70;68.40;;;;;;4992379;28;20375;-91
2022/06/28 09:36:35;;;;;;;5.15;1.48;;;27.40;68.50;;;;;;4992797;28;20044;-91
2022/06/28 09:39:13;;;;;;;1.65;1.05;;;27.60;66.40;;;;;;4976530;28;20033;-91
2022/06/28 09:45:26;;;;;;;1.85;0.93;;;27.00;67.40;;;;;;5011228;28;20049;-88
2022/06/28 09:47:54;;;;;;;2.33;0.98;;;26.60;66.80;;;;;;4977325;28;20034;-90
2022/06/28 09:50:23;;;;;;;3.90;1.10;;;26.30;67.70;;;;;;4976780;28;20487;-87
2022/06/28 09:52:50;;;;;;;2.88;0.70;;;26.80;67.70;;;;;;4992804;28;20752;-90
2022/06/28 09:55:17;;;;;;;2.30;1.02;;;27.20;63.30;;;;;;4996290;28;20088;-89
2022/06/28 09:57:45;;;;;;;2.20;0.90;;;26.80;65.10;;;;;;4996194;28;20030;-89
2022/06/28 10:00:12;;;;;;;3.10;1.38;;;26.90;62.20;;;;;;4979469;28;20038;-89
2022/06/28 10:02:41;;;;;;;1.70;1.10;;;26.90;64.80;;;;;;4996142;28;20034;-90
2022/06/28 10:05:08;;;;;;;1.75;0.75;;;26.40;61.80;;;;;;4978778;28;20030;-88
2022/06/28 10:08:03;;;;;;;2.00;0.88;;;26.60;62.70;;;;;;4978898;28;20026;-88
2022/06/28 10:10:29;;;;;;;1.20;0.70;;;27.30;64.80;;;;;;4979650;28;20495;-89
2022/06/28 10:15:47;;;;;;;2.40;0.80;;;27.40;62.70;;;;;;4995098;28;20389;-89
2022/06/28 10:18:20;;;;;;;6.60;1.15;;;27.90;58.50;;;;;;4978907;28;20037;-88
2022/06/28 10:20:46;;;;;;;4.95;1.02;;;27.70;58.20;;;;;;4979120;28;20034;-91
2022/06/28 10:23:40;;;;;;;2.53;0.95;;;27.50;59.20;;;;;;4994735;28;20026;-88
2022/06/28 10:26:13;;;;;;;2.47;0.88;;;26.30;58.70;;;;;;4978857;28;20030;-88
2022/06/28 10:28:45;;;;;;;5.32;0.93;;;25.80;62.90;;;;;;4996327;28;20036;-88
2022/06/28 10:31:25;;;;;;;1.00;0.70;;;25.40;64.70;;;;;;4979118;28;20044;-87
2022/06/28 10:33:56;;;;;;;3.45;1.00;;;25.20;65.70;;;;;;4995117;28;20499;-88
2022/06/28 10:36:26;;;;;;;;;;;25.00;64.80;;;;;;4979352;28;20049;-87
2022/06/28 10:39:01;;;;;;;2.47;1.10;;;24.80;67.80;;;;;;4995213;28;20661;-87
2022/06/28 10:41:51;;;;;;;1.90;1.00;;;25.20;65.50;;;;;;4995151;28;20034;-88
2022/06/28 10:44:32;;;;;;;2.28;1.13;;;25.30;64.40;;;;;;4978504;28;20053;-87
2022/06/28 10:47:00;;;;;;;3.67;1.05;;;25.50;63.50;;;;;;5012301;28;20034;-89
2022/06/28 10:49:26;;;;;;;3.03;1.08;;;25.60;67.50;;;;;;4977799;28;20041;-87
2022/06/28 10:52:10;;;;;;;1.52;0.88;;;25.80;64.40;;;;;;5012091;28;20061;-88
2022/06/28 10:54:40;;;;;;;3.53;1.20;;;26.00;65.50;;;;;;4978071;28;20489;-88
2022/06/28 10:57:41;;;;;;;8.32;1.10;;;26.30;64.30;;;;;;4978451;28;20034;-88
2022/06/28 11:00:20;;;;;;;2.60;0.90;;;26.40;64.40;;;;;;4999486;28;20041;-88
2022/06/28 11:02:51;;;;;;;2.78;1.23;;;26.80;66.40;;;;;;5014039;28;20034;-88
2022/06/28 11:05:23;;;;;;;3.13;1.20;;;26.70;63.20;;;;;;4994534;28;20026;-89
2022/06/28 11:07:58;;;;;;;3.08;1.00;;;26.20;64.50;;;;;;4978039;28;20037;-87
2022/06/28 11:10:24;;;;;;;2.95;1.55;;;26.40;64.30;;;;;;4977932;28;20492;-87
2022/06/28 11:12:49;;;;;;;3.78;1.40;;;26.70;67.60;;;;;;4978357;28;20053;-89
2022/06/28 11:15:27;;;;;;;4.10;1.05;;;27.10;65.60;;;;;;4977757;28;20057;-88
2022/06/28 11:17:53;;;;;;;1.92;0.95;;;27.20;64.20;;;;;;4978067;28;20033;-87
2022/06/28 11:20:24;;;;;;;2.55;0.95;;;27.10;64.70;;;;;;4977766;28;20079;-87
2022/06/28 11:22:51;;;;;;;1.15;0.90;;;27.00;63.60;;;;;;4994344;28;20033;-87
2022/06/28 11:25:19;;;;;;;2.33;1.30;;;27.30;63.10;;;;;;4977328;28;20038;-88
2022/06/28 11:28:11;;;;;;;5.15;1.00;;;27.40;62.20;;;;;;4994340;28;20030;-87
2022/06/28 11:30:41;;;;;;;1.58;1.13;;;27.70;64.30;;;;;;4995047;28;20073;-88
2022/06/28 11:33:08;;;;;;;5.30;1.20;;;27.40;64.20;;;;;;4977584;28;20073;-88
2022/06/28 11:35:34;;;;;;;2.95;1.10;;;27.50;64.00;;;;;;4977714;28;20481;-88
2022/06/28 11:38:06;;;;;;;2.05;1.10;;;27.20;62.70;;;;;;4993845;28;20030;-88
2022/06/28 11:44:19;;;;;;;2.33;1.17;;;27.40;63.50;;;;;;5011452;28;20420;-87
2022/06/28 11:46:46;;;;;;;3.42;0.85;;;27.50;61.30;;;;;;4993489;28;20041;-87
2022/06/28 11:49:12;;;;;;;7.13;0.90;;;27.00;62.30;;;;;;4977774;28;20042;-88
2022/06/28 11:51:41;;;;;;;3.95;1.05;;;26.30;63.10;;;;;;4994029;28;20544;-87
2022/06/28 11:54:08;;;;;;;2.33;0.93;;;26.00;62.40;;;;;;4993680;28;20041;-88
2022/06/28 11:56:47;;;;;;;2.28;0.95;;;26.00;65.10;;;;;;4993017;28;20663;-88
2022/06/28 11:59:13;;;;;;;4.70;0.80;;;26.30;60.40;;;;;;4976823;28;20489;-87
2022/06/28 12:01:51;;;;;;;3.53;1.05;;;26.50;59.70;;;;;;4993467;28;20590;-87
2022/06/28 12:04:26;;;;;;;3.30;1.27;;;26.40;59.80;;;;;;4993678;28;20067;-88
2022/06/28 12:06:51;;;;;;;1.58;1.00;;;26.40;60.50;;;;;;4977721;28;20821;-87
2022/06/28 12:09:17;;;;;;;2.05;1.08;;;26.60;61.80;;;;;;4976951;28;20053;-88
2022/06/28 12:11:50;;;;;;;3.55;0.98;;;26.90;61.10;;;;;;4976925;28;20037;-87
2022/06/28 12:14:36;;;;;;;4.38;1.20;;;27.10;62.50;;;;;;4977096;28;20030;-88
2022/06/28 12:17:03;;;;;;;1.40;1.02;;;27.20;63.50;;;;;;4992713;28;20025;-88
2022/06/28 12:19:32;;;;;;;3.85;0.90;;;27.50;60.90;;;;;;4993209;28;20034;-87
2022/06/28 12:22:04;;;;;;;3.55;0.93;;;27.70;63.10;;;;;;5010935;28;20030;-87
2022/06/28 12:24:46;;;;;;;3.28;1.40;;;27.60;60.10;;;;;;4992960;28;20078;-88
2022/06/28 12:27:17;;;;;;;2.55;0.90;;;27.50;61.30;;;;;;4993307;28;20401;-88
2022/06/28 12:29:44;;;;;;;1.98;0.90;;;27.70;60.90;;;;;;4976902;28;20045;-87
2022/06/28 12:32:10;;;;;;;3.08;1.00;;;28.30;59.50;;;;;;4976621;28;20041;-87
2022/06/28 12:34:37;;;;;;;3.42;0.75;;;29.00;58.50;;;;;;4976195;28;20026;-88
2022/06/28 12:37:03;;;;;;;5.43;1.08;;;29.20;57.80;;;;;;4992519;28;20034;-88
2022/06/28 12:39:29;;;;;;;8.30;1.48;;;29.70;54.60;;;;;;4992531;28;20041;-89
2022/06/28 12:41:55;;;;;;;1.67;0.90;;;30.30;54.90;;;;;;4993256;28;20026;-88
2022/06/28 12:44:21;;;;;;;1.30;0.70;;;30.40;54.00;;;;;;4992426;28;20038;-88
2022/06/28 12:46:46;;;;;;;5.22;0.70;;;30.40;56.00;;;;;;4992193;28;20026;-89
2022/06/28 12:49:12;;;;;;;4.55;0.70;;;30.40;56.00;;;;;;4976124;28;20026;-88
2022/06/28 12:51:39;;;;;;;1.50;0.90;;;30.30;53.60;;;;;;4992323;28;20087;-88
2022/06/28 12:54:05;;;;;;;0.93;0.82;;;30.40;53.50;;;;;;4992245;28;20091;-88
2022/06/28 12:56:30;;;;;;;5.60;0.85;;;30.60;51.10;;;;;;4976361;28;20034;-88
2022/06/28 12:58:59;;;;;;;0.85;0.60;;;30.90;51.80;;;;;;4976277;28;20094;-88
2022/06/28 13:01:26;;;;;;;2.35;0.73;;;31.00;49.70;;;;;;4975710;28;20038;-88
2022/06/28 13:03:51;;;;;;;4.97;0.93;;;31.00;52.30;;;;;;4992570;28;20836;-89
2022/06/28 13:06:18;;;;;;;3.75;1.02;;;30.50;54.30;;;;;;4976006;28;20030;-87
2022/06/28 13:08:44;;;;;;;2.80;0.82;;;30.50;54.20;;;;;;4976553;28;20045;-88
2022/06/28 13:11:12;;;;;;;2.10;0.80;;;30.60;55.10;;;;;;4976193;28;20026;-88
2022/06/28 13:13:37;;;;;;;3.10;0.70;;;30.80;51.40;;;;;;4991846;28;20073;-87
2022/06/28 13:16:04;;;;;;;2.58;0.77;;;30.10;51.30;;;;;;4992392;28;20668;-88
2022/06/28 13:18:29;;;;;;;1.02;0.65;;;29.80;50.70;;;;;;4992284;28;20034;-88
2022/06/28 13:20:55;;;;;;;6.50;0.80;;;29.90;52.10;;;;;;4992251;28;20427;-89
2022/06/28 13:23:23;;;;;;;2.88;0.73;;;30.20;52.50;;;;;;5009544;28;20075;-87
2022/06/28 13:25:49;;;;;;;1.95;1.10;;;30.10;52.60;;;;;;4970949;28;20046;-87
2022/06/28 13:28:15;;;;;;;3.97;0.85;;;30.20;54.70;;;;;;5009877;28;20512;-90
2022/06/28 13:30:41;;;;;;;2.60;0.93;;;30.20;52.60;;;;;;4996005;28;20135;-89